Terminal Aerodrome Forecast
Issued by NWS

Home | Current Version | Previous Version | Text Only | Print | Product List | Glossary Off
Versions: 1 2 3 4 5 6 7 8 9 10 11 12 13 14 15 16 17 18 19

000
FTUS43 KTOP 251100
TAFFOE
TAF
KFOE 251120Z 2512/2612 22006KT 5SM -TSRA SCT014 BKN050CB
     FM251300 18013KT P6SM VCSH SCT012 BKN050
     FM251800 18016G26KT P6SM SCT050
     FM260200 18012KT P6SM VCTS SCT040CB BKN250=

USA.gov is the U.S. government's official web portal to all federal, state and local government web resources and services.